sensor_id;sensor_type;location;lat;lon;timestamp;temperature;humidity
23471;DHT22;11908;50.806;4.424;2023-07-02T00:00:13;17.40;99.90
23471;DHT22;11908;50.806;4.424;2023-07-02T00:02:39;17.40;99.90
23471;DHT22;11908;50.806;4.424;2023-07-02T00:05:06;17.30;99.90
23471;DHT22;11908;50.806;4.424;2023-07-02T00:07:32;17.20;99.90
23471;DHT22;11908;50.806;4.424;2023-07-02T00:09:58;17.20;99.90
23471;DHT22;11908;50.806;4.424;2023-07-02T00:12:24;17.20;99.90
23471;DHT22;11908;50.806;4.424;2023-07-02T00:14:49;17.30;99.90
23471;DHT22;11908;50.806;4.424;2023-07-02T00:17:18;17.20;99.90
23471;DHT22;11908;50.806;4.424;2023-07-02T00:19:44;17.10;99.90
23471;DHT22;11908;50.806;4.424;2023-07-02T00:22:12;17.10;99.90
23471;DHT22;11908;50.806;4.424;2023-07-02T00:24:38;17.10;99.90
23471;DHT22;11908;50.806;4.424;2023-07-02T00:27:03;17.10;99.90
23471;DHT22;11908;50.806;4.424;2023-07-02T00:29:29;17.10;99.90
23471;DHT22;11908;50.806;4.424;2023-07-02T00:31:55;17.10;99.90
23471;DHT22;11908;50.806;4.424;2023-07-02T00:34:20;17.10;99.90
23471;DHT22;11908;50.806;4.424;2023-07-02T00:36:46;17.10;99.90
23471;DHT22;11908;50.806;4.424;2023-07-02T00:39:12;17.00;99.90
23471;DHT22;11908;50.806;4.424;2023-07-02T00:41:38;17.00;99.90
23471;DHT22;11908;50.806;4.424;2023-07-02T00:44:04;17.00;99.90
23471;DHT22;11908;50.806;4.424;2023-07-02T00:46:30;17.00;99.90
23471;DHT22;11908;50.806;4.424;2023-07-02T00:48:57;17.10;99.90
23471;DHT22;11908;50.806;4.424;2023-07-02T00:51:26;17.10;99.90
23471;DHT22;11908;50.806;4.424;2023-07-02T00:53:54;17.10;99.90
23471;DHT22;11908;50.806;4.424;2023-07-02T00:56:24;17.10;99.90
23471;DHT22;11908;50.806;4.424;2023-07-02T00:58:52;17.10;99.90
23471;DHT22;11908;50.806;4.424;2023-07-02T01:01:21;17.00;99.90
23471;DHT22;11908;50.806;4.424;2023-07-02T01:06:24;16.90;99.90
23471;DHT22;11908;50.806;4.424;2023-07-02T01:08:51;16.90;99.90
23471;DHT22;11908;50.806;4.424;2023-07-02T01:11:18;16.90;99.90
23471;DHT22;11908;50.806;4.424;2023-07-02T01:13:45;16.70;99.90
23471;DHT22;11908;50.806;4.424;2023-07-02T01:16:12;16.70;99.90
23471;DHT22;11908;50.806;4.424;2023-07-02T01:18:37;16.80;99.90
23471;DHT22;11908;50.806;4.424;2023-07-02T01:21:05;16.90;99.90
23471;DHT22;11908;50.806;4.424;2023-07-02T01:23:32;16.80;99.90
23471;DHT22;11908;50.806;4.424;2023-07-02T01:25:58;16.70;99.90
23471;DHT22;11908;50.806;4.424;2023-07-02T01:28:25;16.80;99.90
23471;DHT22;11908;50.806;4.424;2023-07-02T01:30:51;16.90;99.90
23471;DHT22;11908;50.806;4.424;2023-07-02T01:33:17;16.90;99.90
23471;DHT22;11908;50.806;4.424;2023-07-02T01:35:43;16.90;99.90
23471;DHT22;11908;50.806;4.424;2023-07-02T01:38:08;16.80;99.90
23471;DHT22;11908;50.806;4.424;2023-07-02T01:40:34;16.70;99.90
23471;DHT22;11908;50.806;4.424;2023-07-02T01:43:00;16.80;99.90
23471;DHT22;11908;50.806;4.424;2023-07-02T01:45:25;16.90;99.90
23471;DHT22;11908;50.806;4.424;2023-07-02T01:47:51;16.80;99.90
23471;DHT22;11908;50.806;4.424;2023-07-02T01:50:16;16.90;99.90
23471;DHT22;11908;50.806;4.424;2023-07-02T01:52:42;16.80;99.90
23471;DHT22;11908;50.806;4.424;2023-07-02T01:55:08;16.80;99.90
23471;DHT22;11908;50.806;4.424;2023-07-02T01:57:34;16.80;99.90
23471;DHT22;11908;50.806;4.424;2023-07-02T02:00:00;16.90;99.90
23471;DHT22;11908;50.806;4.424;2023-07-02T02:02:25;16.80;99.90
23471;DHT22;11908;50.806;4.424;2023-07-02T02:04:51;16.80;99.90
23471;DHT22;11908;50.806;4.424;2023-07-02T02:07:16;16.80;99.90
23471;DHT22;11908;50.806;4.424;2023-07-02T02:09:42;16.90;99.90
23471;DHT22;11908;50.806;4.424;2023-07-02T02:12:08;17.00;99.90
23471;DHT22;11908;50.806;4.424;2023-07-02T02:14:33;17.00;99.90
23471;DHT22;11908;50.806;4.424;2023-07-02T02:16:59;17.10;99.90
23471;DHT22;11908;50.806;4.424;2023-07-02T02:19:25;17.10;99.90
23471;DHT22;11908;50.806;4.424;2023-07-02T02:21:50;17.10;99.90
23471;DHT22;11908;50.806;4.424;2023-07-02T02:24:16;17.10;99.90
23471;DHT22;11908;50.806;4.424;2023-07-02T02:26:42;17.10;99.90
23471;DHT22;11908;50.806;4.424;2023-07-02T02:29:08;17.10;99.90
23471;DHT22;11908;50.806;4.424;2023-07-02T02:31:33;17.20;99.90
23471;DHT22;11908;50.806;4.424;2023-07-02T02:33:59;17.10;99.90
23471;DHT22;11908;50.806;4.424;2023-07-02T02:36:25;17.10;99.90
23471;DHT22;11908;50.806;4.424;2023-07-02T02:38:50;17.00;99.90
23471;DHT22;11908;50.806;4.424;2023-07-02T02:41:16;17.00;99.90
23471;DHT22;11908;50.806;4.424;2023-07-02T02:43:42;17.00;99.90
23471;DHT22;11908;50.806;4.424;2023-07-02T02:46:18;16.90;99.90
23471;DHT22;11908;50.806;4.424;2023-07-02T02:48:44;16.90;99.90
23471;DHT22;11908;50.806;4.424;2023-07-02T02:51:10;16.80;99.90
23471;DHT22;11908;50.806;4.424;2023-07-02T02:53:36;16.90;99.90
23471;DHT22;11908;50.806;4.424;2023-07-02T02:56:01;16.90;99.90
23471;DHT22;11908;50.806;4.424;2023-07-02T02:58:27;16.80;99.90
23471;DHT22;11908;50.806;4.424;2023-07-02T03:00:53;16.80;99.90
23471;DHT22;11908;50.806;4.424;2023-07-02T03:03:19;16.80;99.90
23471;DHT22;11908;50.806;4.424;2023-07-02T03:05:46;16.60;99.90
23471;DHT22;11908;50.806;4.424;2023-07-02T03:08:14;16.70;99.90
23471;DHT22;11908;50.806;4.424;2023-07-02T03:10:40;16.70;99.90
23471;DHT22;11908;50.806;4.424;2023-07-02T03:13:05;16.70;99.90
23471;DHT22;11908;50.806;4.424;2023-07-02T03:15:31;16.70;99.90
23471;DHT22;11908;50.806;4.424;2023-07-02T03:17:57;16.70;99.90
23471;DHT22;11908;50.806;4.424;2023-07-02T03:20:22;16.70;99.90
23471;DHT22;11908;50.806;4.424;2023-07-02T03:22:48;16.80;99.90
23471;DHT22;11908;50.806;4.424;2023-07-02T03:25:15;16.70;99.90
23471;DHT22;11908;50.806;4.424;2023-07-02T03:27:40;16.80;99.90
23471;DHT22;11908;50.806;4.424;2023-07-02T03:30:06;16.80;99.90
23471;DHT22;11908;50.806;4.424;2023-07-02T03:32:32;16.80;99.90
23471;DHT22;11908;50.806;4.424;2023-07-02T03:34:58;16.70;99.90
23471;DHT22;11908;50.806;4.424;2023-07-02T03:37:24;16.70;99.90
23471;DHT22;11908;50.806;4.424;2023-07-02T03:39:50;16.60;99.90
23471;DHT22;11908;50.806;4.424;2023-07-02T03:42:16;16.60;99.90
23471;DHT22;11908;50.806;4.424;2023-07-02T03:44:41;16.40;99.90
23471;DHT22;11908;50.806;4.424;2023-07-02T03:47:07;16.40;99.90
23471;DHT22;11908;50.806;4.424;2023-07-02T03:49:37;16.40;99.90
23471;DHT22;11908;50.806;4.424;2023-07-02T03:52:03;16.30;99.90
23471;DHT22;11908;50.806;4.424;2023-07-02T03:54:29;16.30;99.90
23471;DHT22;11908;50.806;4.424;2023-07-02T03:56:54;16.30;99.90
23471;DHT22;11908;50.806;4.424;2023-07-02T03:59:20;16.40;99.90
23471;DHT22;11908;50.806;4.424;2023-07-02T04:01:46;16.50;99.90
23471;DHT22;11908;50.806;4.424;2023-07-02T04:04:11;16.50;99.90
23471;DHT22;11908;50.806;4.424;2023-07-02T04:06:37;16.50;99.90
23471;DHT22;11908;50.806;4.424;2023-07-02T04:09:03;16.60;99.90
23471;DHT22;11908;50.806;4.424;2023-07-02T04:11:29;16.60;99.90
23471;DHT22;11908;50.806;4.424;2023-07-02T04:13:55;16.60;99.90
23471;DHT22;11908;50.806;4.424;2023-07-02T04:16:20;16.70;99.90
23471;DHT22;11908;50.806;4.424;2023-07-02T04:18:46;16.70;99.90
23471;DHT22;11908;50.806;4.424;2023-07-02T04:21:12;16.70;99.90
23471;DHT22;11908;50.806;4.424;2023-07-02T04:23:37;16.50;99.90
23471;DHT22;11908;50.806;4.424;2023-07-02T04:26:03;16.50;99.90
23471;DHT22;11908;50.806;4.424;2023-07-02T04:28:29;16.60;99.90
23471;DHT22;11908;50.806;4.424;2023-07-02T04:30:54;16.80;99.90
23471;DHT22;11908;50.806;4.424;2023-07-02T04:33:20;16.70;99.90
23471;DHT22;11908;50.806;4.424;2023-07-02T04:35:46;16.80;99.90
23471;DHT22;11908;50.806;4.424;2023-07-02T04:38:11;16.90;99.90
23471;DHT22;11908;50.806;4.424;2023-07-02T04:40:38;17.10;99.90
23471;DHT22;11908;50.806;4.424;2023-07-02T04:43:04;17.20;99.90
23471;DHT22;11908;50.806;4.424;2023-07-02T04:45:30;17.30;99.90
23471;DHT22;11908;50.806;4.424;2023-07-02T04:48:02;17.30;99.90
23471;DHT22;11908;50.806;4.424;2023-07-02T04:50:28;17.40;99.90
23471;DHT22;11908;50.806;4.424;2023-07-02T04:52:54;17.40;99.90
23471;DHT22;11908;50.806;4.424;2023-07-02T04:55:21;17.50;99.90
23471;DHT22;11908;50.806;4.424;2023-07-02T04:57:46;17.80;99.90
23471;DHT22;11908;50.806;4.424;2023-07-02T05:00:12;17.80;99.90
23471;DHT22;11908;50.806;4.424;2023-07-02T05:02:39;18.10;99.90
23471;DHT22;11908;50.806;4.424;2023-07-02T05:05:05;18.40;99.90
23471;DHT22;11908;50.806;4.424;2023-07-02T05:07:30;19.10;99.90
23471;DHT22;11908;50.806;4.424;2023-07-02T05:09:56;19.20;99.90
23471;DHT22;11908;50.806;4.424;2023-07-02T05:12:23;19.40;99.90
23471;DHT22;11908;50.806;4.424;2023-07-02T05:14:48;20.20;99.90
23471;DHT22;11908;50.806;4.424;2023-07-02T05:17:14;20.80;99.90
23471;DHT22;11908;50.806;4.424;2023-07-02T05:19:40;21.10;99.90
23471;DHT22;11908;50.806;4.424;2023-07-02T05:22:06;20.90;99.90
23471;DHT22;11908;50.806;4.424;2023-07-02T05:24:32;20.50;99.90
23471;DHT22;11908;50.806;4.424;2023-07-02T05:26:58;20.90;99.90
23471;DHT22;11908;50.806;4.424;2023-07-02T05:29:24;21.00;99.90
23471;DHT22;11908;50.806;4.424;2023-07-02T05:31:49;20.60;99.90
23471;DHT22;11908;50.806;4.424;2023-07-02T05:34:15;20.20;99.90
23471;DHT22;11908;50.806;4.424;2023-07-02T05:36:41;20.40;99.90
23471;DHT22;11908;50.806;4.424;2023-07-02T05:39:06;21.00;99.90
23471;DHT22;11908;50.806;4.424;2023-07-02T05:41:32;21.70;99.90
23471;DHT22;11908;50.806;4.424;2023-07-02T05:43:58;23.00;99.90
23471;DHT22;11908;50.806;4.424;2023-07-02T05:46:24;23.90;99.90
23471;DHT22;11908;50.806;4.424;2023-07-02T05:48:50;24.60;99.90
23471;DHT22;11908;50.806;4.424;2023-07-02T05:51:23;26.00;99.90
23471;DHT22;11908;50.806;4.424;2023-07-02T05:53:50;26.40;99.90
23471;DHT22;11908;50.806;4.424;2023-07-02T05:56:16;25.10;99.90
23471;DHT22;11908;50.806;4.424;2023-07-02T05:58:42;24.80;99.90
23471;DHT22;11908;50.806;4.424;2023-07-02T06:01:07;24.50;99.90
23471;DHT22;11908;50.806;4.424;2023-07-02T06:03:33;24.10;99.90
23471;DHT22;11908;50.806;4.424;2023-07-02T06:05:59;24.20;99.90
23471;DHT22;11908;50.806;4.424;2023-07-02T06:08:24;24.40;99.90
23471;DHT22;11908;50.806;4.424;2023-07-02T06:10:50;23.70;99.90
23471;DHT22;11908;50.806;4.424;2023-07-02T06:13:16;24.70;99.90
23471;DHT22;11908;50.806;4.424;2023-07-02T06:15:42;25.20;99.90
23471;DHT22;11908;50.806;4.424;2023-07-02T06:18:08;25.50;99.90
23471;DHT22;11908;50.806;4.424;2023-07-02T06:20:33;25.10;99.90
23471;DHT22;11908;50.806;4.424;2023-07-02T06:22:59;24.70;99.90
23471;DHT22;11908;50.806;4.424;2023-07-02T06:25:26;24.10;99.90
23471;DHT22;11908;50.806;4.424;2023-07-02T06:27:52;24.30;99.90
23471;DHT22;11908;50.806;4.424;2023-07-02T06:30:21;24.20;99.90
23471;DHT22;11908;50.806;4.424;2023-07-02T06:32:46;24.00;99.90
23471;DHT22;11908;50.806;4.424;2023-07-02T06:35:12;24.80;99.90
23471;DHT22;11908;50.806;4.424;2023-07-02T06:37:38;25.00;99.90
23471;DHT22;11908;50.806;4.424;2023-07-02T06:40:04;25.30;99.90
23471;DHT22;11908;50.806;4.424;2023-07-02T06:42:30;25.00;99.90
23471;DHT22;11908;50.806;4.424;2023-07-02T06:44:56;24.50;99.90
23471;DHT22;11908;50.806;4.424;2023-07-02T06:47:22;23.60;99.90
23471;DHT22;11908;50.806;4.424;2023-07-02T06:49:47;23.60;99.90
23471;DHT22;11908;50.806;4.424;2023-07-02T06:52:13;23.10;99.90
23471;DHT22;11908;50.806;4.424;2023-07-02T06:54:39;23.00;99.90
23471;DHT22;11908;50.806;4.424;2023-07-02T06:57:05;23.20;99.90
23471;DHT22;11908;50.806;4.424;2023-07-02T06:59:31;23.10;99.90
23471;DHT22;11908;50.806;4.424;2023-07-02T07:01:57;23.40;99.90
23471;DHT22;11908;50.806;4.424;2023-07-02T07:04:22;22.90;99.90
23471;DHT22;11908;50.806;4.424;2023-07-02T07:06:48;22.90;99.90
23471;DHT22;11908;50.806;4.424;2023-07-02T07:09:14;22.80;99.90
23471;DHT22;11908;50.806;4.424;2023-07-02T07:11:39;23.00;99.90
23471;DHT22;11908;50.806;4.424;2023-07-02T07:14:05;23.30;99.90
23471;DHT22;11908;50.806;4.424;2023-07-02T07:16:31;23.10;99.90
23471;DHT22;11908;50.806;4.424;2023-07-02T07:18:57;23.30;99.90
23471;DHT22;11908;50.806;4.424;2023-07-02T07:21:22;23.60;99.90
23471;DHT22;11908;50.806;4.424;2023-07-02T07:23:48;24.30;99.90
23471;DHT22;11908;50.806;4.424;2023-07-02T07:26:14;24.80;99.90
23471;DHT22;11908;50.806;4.424;2023-07-02T07:28:39;24.30;99.90
23471;DHT22;11908;50.806;4.424;2023-07-02T07:31:05;24.20;99.90
23471;DHT22;11908;50.806;4.424;2023-07-02T07:33:31;24.20;99.90
23471;DHT22;11908;50.806;4.424;2023-07-02T07:35:57;23.80;99.90
23471;DHT22;11908;50.806;4.424;2023-07-02T07:38:22;23.60;99.90
23471;DHT22;11908;50.806;4.424;2023-07-02T07:40:48;23.30;99.90
23471;DHT22;11908;50.806;4.424;2023-07-02T07:43:14;23.30;99.90
23471;DHT22;11908;50.806;4.424;2023-07-02T07:45:40;23.30;99.90
23471;DHT22;11908;50.806;4.424;2023-07-02T07:48:06;23.40;99.90
23471;DHT22;11908;50.806;4.424;2023-07-02T07:50:31;23.90;99.90
23471;DHT22;11908;50.806;4.424;2023-07-02T07:52:58;23.80;99.90
23471;DHT22;11908;50.806;4.424;2023-07-02T07:55:24;23.50;99.90
23471;DHT22;11908;50.806;4.424;2023-07-02T07:57:50;23.10;99.90
23471;DHT22;11908;50.806;4.424;2023-07-02T08:00:16;23.00;99.90
23471;DHT22;11908;50.806;4.424;2023-07-02T08:02:43;23.20;99.90
23471;DHT22;11908;50.806;4.424;2023-07-02T08:05:09;23.50;99.90
23471;DHT22;11908;50.806;4.424;2023-07-02T08:07:35;24.10;99.90
23471;DHT22;11908;50.806;4.424;2023-07-02T08:10:01;24.50;99.90
23471;DHT22;11908;50.806;4.424;2023-07-02T08:12:28;24.60;99.90
23471;DHT22;11908;50.806;4.424;2023-07-02T08:14:55;24.50;99.90
23471;DHT22;11908;50.806;4.424;2023-07-02T08:17:21;24.10;99.90
23471;DHT22;11908;50.806;4.424;2023-07-02T08:19:46;24.20;99.90
23471;DHT22;11908;50.806;4.424;2023-07-02T08:22:12;24.50;99.90
23471;DHT22;11908;50.806;4.424;2023-07-02T08:24:38;25.00;99.90
23471;DHT22;11908;50.806;4.424;2023-07-02T08:27:04;25.00;99.90
23471;DHT22;11908;50.806;4.424;2023-07-02T08:29:31;24.80;99.90
23471;DHT22;11908;50.806;4.424;2023-07-02T08:31:57;25.00;99.90
23471;DHT22;11908;50.806;4.424;2023-07-02T08:34:23;25.30;99.90
23471;DHT22;11908;50.806;4.424;2023-07-02T08:36:48;25.20;99.90
23471;DHT22;11908;50.806;4.424;2023-07-02T08:39:15;24.70;99.90
23471;DHT22;11908;50.806;4.424;2023-07-02T08:41:45;24.60;99.90
23471;DHT22;11908;50.806;4.424;2023-07-02T08:44:12;24.80;99.90
23471;DHT22;11908;50.806;4.424;2023-07-02T08:46:39;24.80;99.90
23471;DHT22;11908;50.806;4.424;2023-07-02T08:49:07;24.50;99.90
23471;DHT22;11908;50.806;4.424;2023-07-02T08:51:32;24.30;99.90
23471;DHT22;11908;50.806;4.424;2023-07-02T08:53:58;23.80;99.90
23471;DHT22;11908;50.806;4.424;2023-07-02T08:56:24;23.40;99.90
23471;DHT22;11908;50.806;4.424;2023-07-02T08:58:49;23.20;99.90
23471;DHT22;11908;50.806;4.424;2023-07-02T09:01:15;23.20;99.90
23471;DHT22;11908;50.806;4.424;2023-07-02T09:03:41;22.90;99.90
23471;DHT22;11908;50.806;4.424;2023-07-02T09:06:08;22.70;99.90
23471;DHT22;11908;50.806;4.424;2023-07-02T09:08:35;23.30;99.90
23471;DHT22;11908;50.806;4.424;2023-07-02T09:11:14;23.60;99.90
23471;DHT22;11908;50.806;4.424;2023-07-02T09:13:51;23.90;99.90
23471;DHT22;11908;50.806;4.424;2023-07-02T09:16:28;23.40;99.90
23471;DHT22;11908;50.806;4.424;2023-07-02T09:19:01;22.80;99.90
23471;DHT22;11908;50.806;4.424;2023-07-02T09:21:47;22.40;99.90
23471;DHT22;11908;50.806;4.424;2023-07-02T09:24:20;22.50;99.90
23471;DHT22;11908;50.806;4.424;2023-07-02T09:26:51;22.70;99.90
23471;DHT22;11908;50.806;4.424;2023-07-02T09:29:29;22.70;99.90
23471;DHT22;11908;50.806;4.424;2023-07-02T09:32:04;22.90;99.90
23471;DHT22;11908;50.806;4.424;2023-07-02T09:34:33;23.90;99.90
23471;DHT22;11908;50.806;4.424;2023-07-02T09:37:00;24.10;99.90
23471;DHT22;11908;50.806;4.424;2023-07-02T09:39:27;24.90;99.90
23471;DHT22;11908;50.806;4.424;2023-07-02T09:41:58;25.60;99.90
23471;DHT22;11908;50.806;4.424;2023-07-02T09:44:31;25.30;99.90
23471;DHT22;11908;50.806;4.424;2023-07-02T09:47:04;25.30;99.90
23471;DHT22;11908;50.806;4.424;2023-07-02T09:49:43;25.80;99.90
23471;DHT22;11908;50.806;4.424;2023-07-02T09:52:11;25.60;99.90
23471;DHT22;11908;50.806;4.424;2023-07-02T09:54:38;25.40;99.90
23471;DHT22;11908;50.806;4.424;2023-07-02T09:57:04;25.20;99.90
23471;DHT22;11908;50.806;4.424;2023-07-02T09:59:31;25.20;99.90
23471;DHT22;11908;50.806;4.424;2023-07-02T10:01:57;25.50;99.90
23471;DHT22;11908;50.806;4.424;2023-07-02T10:04:23;25.40;99.90
23471;DHT22;11908;50.806;4.424;2023-07-02T10:06:53;25.30;99.90
23471;DHT22;11908;50.806;4.424;2023-07-02T10:09:21;24.90;99.90
23471;DHT22;11908;50.806;4.424;2023-07-02T10:11:47;25.00;99.90
23471;DHT22;11908;50.806;4.424;2023-07-02T10:14:13;25.00;99.90
23471;DHT22;11908;50.806;4.424;2023-07-02T10:16:49;24.60;99.90
23471;DHT22;11908;50.806;4.424;2023-07-02T10:19:16;24.40;99.90
23471;DHT22;11908;50.806;4.424;2023-07-02T10:21:41;24.10;99.90
23471;DHT22;11908;50.806;4.424;2023-07-02T10:24:14;24.30;99.90
23471;DHT22;11908;50.806;4.424;2023-07-02T10:27:00;23.60;99.90
23471;DHT22;11908;50.806;4.424;2023-07-02T10:29:28;23.40;99.90
23471;DHT22;11908;50.806;4.424;2023-07-02T10:31:55;23.70;99.90
23471;DHT22;11908;50.806;4.424;2023-07-02T10:34:34;24.90;99.90
23471;DHT22;11908;50.806;4.424;2023-07-02T10:37:02;24.80;99.90
23471;DHT22;11908;50.806;4.424;2023-07-02T10:39:32;25.00;99.90
23471;DHT22;11908;50.806;4.424;2023-07-02T10:42:05;24.80;99.90
23471;DHT22;11908;50.806;4.424;2023-07-02T10:44:31;25.00;99.90
23471;DHT22;11908;50.806;4.424;2023-07-02T10:46:57;24.20;99.90
23471;DHT22;11908;50.806;4.424;2023-07-02T10:49:30;24.20;99.90
23471;DHT22;11908;50.806;4.424;2023-07-02T10:52:00;24.20;99.90
23471;DHT22;11908;50.806;4.424;2023-07-02T10:54:38;24.40;99.90
23471;DHT22;11908;50.806;4.424;2023-07-02T10:57:05;24.80;99.90
23471;DHT22;11908;50.806;4.424;2023-07-02T10:59:31;26.00;99.90
23471;DHT22;11908;50.806;4.424;2023-07-02T11:01:56;26.40;99.90
23471;DHT22;11908;50.806;4.424;2023-07-02T11:04:27;26.50;99.90
23471;DHT22;11908;50.806;4.424;2023-07-02T11:06:53;26.50;99.90
23471;DHT22;11908;50.806;4.424;2023-07-02T11:09:19;26.10;99.90
23471;DHT22;11908;50.806;4.424;2023-07-02T11:11:57;26.00;99.90
23471;DHT22;11908;50.806;4.424;2023-07-02T11:14:36;25.80;99.90
23471;DHT22;11908;50.806;4.424;2023-07-02T11:17:06;25.70;99.90
23471;DHT22;11908;50.806;4.424;2023-07-02T11:19:33;25.90;99.90
23471;DHT22;11908;50.806;4.424;2023-07-02T11:21:59;25.90;99.90
23471;DHT22;11908;50.806;4.424;2023-07-02T11:24:35;25.80;99.90
23471;DHT22;11908;50.806;4.424;2023-07-02T11:27:03;25.80;99.90
23471;DHT22;11908;50.806;4.424;2023-07-02T11:29:32;25.40;99.90
23471;DHT22;11908;50.806;4.424;2023-07-02T11:32:06;25.10;99.90
23471;DHT22;11908;50.806;4.424;2023-07-02T11:34:31;25.10;99.90
23471;DHT22;11908;50.806;4.424;2023-07-02T11:36:57;25.30;99.90
23471;DHT22;11908;50.806;4.424;2023-07-02T11:39:23;25.00;99.90
23471;DHT22;11908;50.806;4.424;2023-07-02T11:41:48;25.30;99.90
23471;DHT22;11908;50.806;4.424;2023-07-02T11:44:15;25.20;99.90
23471;DHT22;11908;50.806;4.424;2023-07-02T11:46:41;25.30;99.90
23471;DHT22;11908;50.806;4.424;2023-07-02T11:49:07;25.90;99.90
23471;DHT22;11908;50.806;4.424;2023-07-02T11:51:35;26.10;99.90
23471;DHT22;11908;50.806;4.424;2023-07-02T11:54:01;25.70;99.90
23471;DHT22;11908;50.806;4.424;2023-07-02T11:56:27;25.00;99.90
23471;DHT22;11908;50.806;4.424;2023-07-02T11:58:52;25.30;99.90
23471;DHT22;11908;50.806;4.424;2023-07-02T12:01:18;25.70;99.90
23471;DHT22;11908;50.806;4.424;2023-07-02T12:03:44;25.80;99.90
23471;DHT22;11908;50.806;4.424;2023-07-02T12:06:10;26.50;99.90
23471;DHT22;11908;50.806;4.424;2023-07-02T12:08:36;26.80;99.90
23471;DHT22;11908;50.806;4.424;2023-07-02T12:11:02;26.80;99.70
23471;DHT22;11908;50.806;4.424;2023-07-02T12:13:27;26.80;99.90
23471;DHT22;11908;50.806;4.424;2023-07-02T12:15:53;26.80;99.40
23471;DHT22;11908;50.806;4.424;2023-07-02T12:18:19;27.10;99.90
23471;DHT22;11908;50.806;4.424;2023-07-02T12:20:44;27.10;99.40
23471;DHT22;11908;50.806;4.424;2023-07-02T12:23:10;26.70;98.30
23471;DHT22;11908;50.806;4.424;2023-07-02T12:25:37;26.60;97.30
23471;DHT22;11908;50.806;4.424;2023-07-02T12:28:03;26.30;98.60
23471;DHT22;11908;50.806;4.424;2023-07-02T12:30:30;26.70;99.00
23471;DHT22;11908;50.806;4.424;2023-07-02T12:32:55;26.90;98.10
23471;DHT22;11908;50.806;4.424;2023-07-02T12:35:21;26.10;98.50
23471;DHT22;11908;50.806;4.424;2023-07-02T12:37:49;26.40;99.90
23471;DHT22;11908;50.806;4.424;2023-07-02T12:40:15;26.20;99.90
23471;DHT22;11908;50.806;4.424;2023-07-02T12:42:42;26.40;99.90
23471;DHT22;11908;50.806;4.424;2023-07-02T12:45:09;26.60;97.80
23471;DHT22;11908;50.806;4.424;2023-07-02T12:47:34;26.90;97.10
23471;DHT22;11908;50.806;4.424;2023-07-02T12:50:00;27.20;97.80
23471;DHT22;11908;50.806;4.424;2023-07-02T12:52:26;26.60;99.90
23471;DHT22;11908;50.806;4.424;2023-07-02T12:54:52;26.40;98.90
23471;DHT22;11908;50.806;4.424;2023-07-02T12:57:17;26.10;98.70
23471;DHT22;11908;50.806;4.424;2023-07-02T12:59:43;26.60;98.60
23471;DHT22;11908;50.806;4.424;2023-07-02T13:02:10;27.10;98.00
23471;DHT22;11908;50.806;4.424;2023-07-02T13:04:36;26.90;95.70
23471;DHT22;11908;50.806;4.424;2023-07-02T13:07:02;26.60;97.10
23471;DHT22;11908;50.806;4.424;2023-07-02T13:09:27;26.70;96.90
23471;DHT22;11908;50.806;4.424;2023-07-02T13:11:53;26.70;96.80
23471;DHT22;11908;50.806;4.424;2023-07-02T13:14:19;26.80;96.20
23471;DHT22;11908;50.806;4.424;2023-07-02T13:16:45;26.50;96.00
23471;DHT22;11908;50.806;4.424;2023-07-02T13:19:11;26.30;96.00
23471;DHT22;11908;50.806;4.424;2023-07-02T13:21:36;25.70;95.90
23471;DHT22;11908;50.806;4.424;2023-07-02T13:24:02;25.60;97.50
23471;DHT22;11908;50.806;4.424;2023-07-02T13:26:28;25.90;98.10
23471;DHT22;11908;50.806;4.424;2023-07-02T13:28:54;25.90;97.10
23471;DHT22;11908;50.806;4.424;2023-07-02T13:31:20;26.00;97.80
23471;DHT22;11908;50.806;4.424;2023-07-02T13:33:45;26.40;98.00
23471;DHT22;11908;50.806;4.424;2023-07-02T13:36:15;26.00;96.30
23471;DHT22;11908;50.806;4.424;2023-07-02T13:38:40;25.50;97.40
23471;DHT22;11908;50.806;4.424;2023-07-02T13:41:06;25.50;97.30
23471;DHT22;11908;50.806;4.424;2023-07-02T13:43:32;25.00;98.70
23471;DHT22;11908;50.806;4.424;2023-07-02T13:45:57;25.00;99.40
23471;DHT22;11908;50.806;4.424;2023-07-02T13:48:23;25.20;99.00
23471;DHT22;11908;50.806;4.424;2023-07-02T13:50:49;25.50;98.30
23471;DHT22;11908;50.806;4.424;2023-07-02T13:53:14;25.80;99.00
23471;DHT22;11908;50.806;4.424;2023-07-02T13:55:40;26.00;98.00
23471;DHT22;11908;50.806;4.424;2023-07-02T13:58:06;26.20;97.40
23471;DHT22;11908;50.806;4.424;2023-07-02T14:00:31;26.30;98.80
23471;DHT22;11908;50.806;4.424;2023-07-02T14:02:57;26.20;98.10
23471;DHT22;11908;50.806;4.424;2023-07-02T14:05:23;26.00;97.70
23471;DHT22;11908;50.806;4.424;2023-07-02T14:07:49;25.80;98.40
23471;DHT22;11908;50.806;4.424;2023-07-02T14:10:15;25.60;98.70
23471;DHT22;11908;50.806;4.424;2023-07-02T14:12:41;25.10;99.30
23471;DHT22;11908;50.806;4.424;2023-07-02T14:15:08;24.90;99.90
23471;DHT22;11908;50.806;4.424;2023-07-02T14:17:34;25.30;99.90
23471;DHT22;11908;50.806;4.424;2023-07-02T14:20:00;25.40;99.60
23471;DHT22;11908;50.806;4.424;2023-07-02T14:22:25;25.70;99.90
23471;DHT22;11908;50.806;4.424;2023-07-02T14:24:51;25.70;98.40
23471;DHT22;11908;50.806;4.424;2023-07-02T14:27:17;25.90;99.30
23471;DHT22;11908;50.806;4.424;2023-07-02T14:29:42;25.60;99.70
23471;DHT22;11908;50.806;4.424;2023-07-02T14:32:08;25.30;99.90
23471;DHT22;11908;50.806;4.424;2023-07-02T14:34:34;25.20;99.90
23471;DHT22;11908;50.806;4.424;2023-07-02T14:37:02;25.50;99.20
23471;DHT22;11908;50.806;4.424;2023-07-02T14:39:28;25.70;98.70
23471;DHT22;11908;50.806;4.424;2023-07-02T14:41:54;25.50;99.40
23471;DHT22;11908;50.806;4.424;2023-07-02T14:44:20;25.50;99.90
23471;DHT22;11908;50.806;4.424;2023-07-02T14:46:46;25.30;99.90
23471;DHT22;11908;50.806;4.424;2023-07-02T14:49:11;25.00;99.90
23471;DHT22;11908;50.806;4.424;2023-07-02T14:51:37;24.80;99.90
23471;DHT22;11908;50.806;4.424;2023-07-02T14:54:03;24.80;99.90
23471;DHT22;11908;50.806;4.424;2023-07-02T14:56:32;25.10;99.90
23471;DHT22;11908;50.806;4.424;2023-07-02T14:58:58;25.20;99.90
23471;DHT22;11908;50.806;4.424;2023-07-02T15:01:23;25.20;99.70
23471;DHT22;11908;50.806;4.424;2023-07-02T15:03:49;25.00;99.60
23471;DHT22;11908;50.806;4.424;2023-07-02T15:06:17;25.00;99.90
23471;DHT22;11908;50.806;4.424;2023-07-02T15:08:43;24.90;99.90
23471;DHT22;11908;50.806;4.424;2023-07-02T15:11:11;24.90;99.90
23471;DHT22;11908;50.806;4.424;2023-07-02T15:13:37;24.80;99.90
23471;DHT22;11908;50.806;4.424;2023-07-02T15:16:04;24.80;99.90
23471;DHT22;11908;50.806;4.424;2023-07-02T15:18:30;24.60;99.90
23471;DHT22;11908;50.806;4.424;2023-07-02T15:20:56;24.40;99.90
23471;DHT22;11908;50.806;4.424;2023-07-02T15:23:23;24.50;99.90
23471;DHT22;11908;50.806;4.424;2023-07-02T15:26:03;24.70;99.90
23471;DHT22;11908;50.806;4.424;2023-07-02T15:28:30;24.90;99.90